Plumfield, Illinois
Current Conditions -  °F | °C
As of 11:55 PM on Friday 28 Nov 2014 (Local Time) from KMWA Reporting Station
Clear Clear  
Wind Chill: 36°   Ceiling: Unl
Heat Index: 43°   Visibility: 10mi
Dew Point: 30°   Wind: 14mph
Humidity: 61%   Direction: 190°S
Pressure: 29.99"   Gusts: 21mph
Location:  37.9074°N, 88.9501°W
Report Text: KMWA 290555Z AUTO 19012G18KT 10SM CLR 06/M01 A2999 RMK AO2
Loading
Personal Weather Stations






























Interactive Weather Map New forecast layout! Learn more

10-Day Weather Forecast

Advertisements
Track Severe Weather on mobile